Parks Crossroads, North Carolina
Current Conditions -  °F | °C
As of 4:55 AM on Thursday 23 Oct 2014 (Local Time) from K5W8 Reporting Station
Clear Clear  
Wind Chill: 38°   Ceiling: Unl
Heat Index: 38°   Visibility: 10mi
Dew Point: 37°   Wind: 0mph
Humidity: 98%   Direction: NA
Pressure: 30.02"   Gusts: NA
Location:  35.6832°N, 79.6174°W
Report Text: K5W8 230855Z AUTO 00000KT 10SM CLR 03/03 A3002 RMK AO2 T00310028
Loading
Personal Weather Stations






























Interactive Weather Map
Tropical Storm Tracking
New forecast layout! Learn more

10-Day Weather Forecast

Advertisements
Track Severe Weather on mobile